createdAt,value
2023-06-18T00:03:44.944Z,11.96
2023-06-18T00:08:47.317Z,11.90
2023-06-18T00:13:49.281Z,11.85
2023-06-18T00:18:51.260Z,11.77
2023-06-18T00:23:53.076Z,11.69
2023-06-18T00:28:54.803Z,11.66
2023-06-18T00:33:57.036Z,11.63
2023-06-18T00:38:59.279Z,11.56
2023-06-18T00:44:01.014Z,11.53
2023-06-18T00:49:03.880Z,11.48
2023-06-18T00:54:05.759Z,11.46
2023-06-18T00:59:07.832Z,11.42
2023-06-18T01:04:09.596Z,11.30
2023-06-18T01:09:13.725Z,11.20
2023-06-18T01:14:15.771Z,11.09
2023-06-18T01:19:46.437Z,10.98
2023-06-18T01:24:55.669Z,10.92
2023-06-18T01:29:58.617Z,10.89
2023-06-18T01:35:01.351Z,10.88
2023-06-18T01:40:13.264Z,10.96
2023-06-18T01:45:25.101Z,11.02
2023-06-18T01:50:29.137Z,11.08
2023-06-18T01:55:34.696Z,11.11
2023-06-18T02:00:36.436Z,11.11
2023-06-18T02:05:38.238Z,11.06
2023-06-18T02:10:39.952Z,11.02
2023-06-18T02:15:43.214Z,11.03
2023-06-18T02:20:45.408Z,11.13
2023-06-18T02:25:48.046Z,11.24
2023-06-18T02:30:49.799Z,11.31
2023-06-18T02:35:51.546Z,11.34
2023-06-18T02:40:53.295Z,11.49
2023-06-18T02:45:55.103Z,11.62
2023-06-18T02:50:56.998Z,11.71
2023-06-18T02:55:58.889Z,11.78
2023-06-18T03:01:01.494Z,11.92
2023-06-18T03:06:05.646Z,11.99
2023-06-18T03:11:08.054Z,12.03
2023-06-18T03:16:11.336Z,12.23
2023-06-18T03:21:13.997Z,12.70
2023-06-18T03:26:16.540Z,13.38
2023-06-18T03:31:18.277Z,13.92
2023-06-18T03:36:20.918Z,14.46
2023-06-18T03:41:23.995Z,15.16
2023-06-18T03:46:26.144Z,15.93
2023-06-18T03:51:28.411Z,16.77
2023-06-18T03:56:30.920Z,17.57
2023-06-18T04:07:13.575Z,18.19
2023-06-18T04:12:15.595Z,18.38
2023-06-18T04:17:17.505Z,18.50
2023-06-18T04:22:19.468Z,18.14
2023-06-18T04:27:21.333Z,17.83
2023-06-18T04:32:23.422Z,17.43
2023-06-18T04:37:26.352Z,17.11
2023-06-18T04:42:30.085Z,16.85
2023-06-18T04:47:33.356Z,16.57
2023-06-18T04:52:35.725Z,16.51
2023-06-18T04:57:38.048Z,16.32
2023-06-18T05:02:40.151Z,16.17
2023-06-18T05:07:43.082Z,16.21
2023-06-18T05:12:45.490Z,16.38
2023-06-18T05:17:47.560Z,16.66
2023-06-18T05:22:52.930Z,17.37
2023-06-18T05:27:54.762Z,18.11
2023-06-18T05:32:56.966Z,18.68
2023-06-18T05:37:58.812Z,19.05
2023-06-18T05:43:01.214Z,19.62
2023-06-18T05:48:04.630Z,20.22
2023-06-18T05:53:16.038Z,20.80
2023-06-18T05:58:18.210Z,21.26
2023-06-18T06:03:20.066Z,21.40
2023-06-18T06:08:22.670Z,21.55
2023-06-18T06:13:29.285Z,21.91
2023-06-18T06:18:34.582Z,22.10
2023-06-18T06:23:36.705Z,22.31
2023-06-18T06:28:39.609Z,22.37
2023-06-18T06:33:42.392Z,22.36
2023-06-18T06:38:44.692Z,22.49
2023-06-18T06:43:46.947Z,22.74
2023-06-18T06:49:10.932Z,22.71
2023-06-18T06:54:32.321Z,23.10
2023-06-18T06:59:34.062Z,23.34
2023-06-18T07:04:36.006Z,23.26
2023-06-18T07:09:37.729Z,23.01
2023-06-18T07:14:39.508Z,23.01
2023-06-18T07:19:41.253Z,23.40
2023-06-18T07:24:43.493Z,23.95
2023-06-18T07:29:45.518Z,23.34
2023-06-18T07:34:47.242Z,23.22
2023-06-18T07:39:48.928Z,23.70
2023-06-18T07:44:52.875Z,23.76
2023-06-18T07:49:54.913Z,23.40
2023-06-18T07:54:56.641Z,23.39
2023-06-18T07:59:59.051Z,23.97
2023-06-18T08:10:04.256Z,23.36
2023-06-18T08:15:06.742Z,23.93
2023-06-18T08:20:09.433Z,24.19
2023-06-18T08:25:11.240Z,24.31
2023-06-18T08:30:42.649Z,25.08
2023-06-18T08:35:44.490Z,25.89
2023-06-18T08:41:03.387Z,25.32
2023-06-18T08:46:12.294Z,25.30
2023-06-18T08:51:17.178Z,24.97
2023-06-18T08:56:23.452Z,23.89
2023-06-18T09:01:26.926Z,22.89
2023-06-18T09:06:30.649Z,22.74
2023-06-18T09:11:37.367Z,23.87
2023-06-18T09:16:39.718Z,24.77
2023-06-18T09:21:44.228Z,25.92
2023-06-18T09:26:46.628Z,26.65
2023-06-18T09:31:48.336Z,27.46
2023-06-18T09:36:51.613Z,26.59
2023-06-18T09:41:56.646Z,24.86
2023-06-18T09:46:59.104Z,24.02
2023-06-18T09:52:06.131Z,23.78
2023-06-18T09:57:11.623Z,23.60
2023-06-18T10:02:25.066Z,24.37
2023-06-18T10:07:27.084Z,25.21
2023-06-18T10:12:29.216Z,25.75
2023-06-18T10:17:35.829Z,27.03
2023-06-18T10:22:50.070Z,27.70
2023-06-18T10:27:51.925Z,26.95
2023-06-18T10:32:55.123Z,27.01
2023-06-18T10:37:58.153Z,27.89
2023-06-18T10:43:05.302Z,28.06
2023-06-18T10:48:17.420Z,28.36
2023-06-18T10:53:25.369Z,28.91
2023-06-18T10:58:35.014Z,28.32
2023-06-18T11:03:38.990Z,27.67
2023-06-18T11:08:40.947Z,27.32
2023-06-18T11:13:54.791Z,27.86
2023-06-18T11:19:01.898Z,28.00
2023-06-18T11:24:04.256Z,27.59
2023-06-18T11:29:07.312Z,28.59
2023-06-18T11:40:48.291Z,29.92
2023-06-18T11:45:52.098Z,30.25
2023-06-18T11:50:58.601Z,29.49
2023-06-18T11:56:00.932Z,28.59
2023-06-18T12:01:03.265Z,28.39
2023-06-18T12:06:17.571Z,28.16
2023-06-18T12:11:45.103Z,27.76
2023-06-18T12:16:57.374Z,27.42
2023-06-18T12:22:09.806Z,27.59
2023-06-18T12:27:12.325Z,27.40
2023-06-18T12:32:14.169Z,27.50
2023-06-18T12:37:18.671Z,28.44
2023-06-18T12:42:21.751Z,29.86
2023-06-18T12:47:23.579Z,30.47
2023-06-18T12:52:28.160Z,30.27
2023-06-18T12:57:30.249Z,29.41
2023-06-18T13:02:32.743Z,28.47
2023-06-18T13:40:22.655Z,24.55
2023-06-18T13:45:25.009Z,24.55
2023-06-18T13:50:27.442Z,25.05
2023-06-18T13:55:29.356Z,26.76
2023-06-18T14:00:31.751Z,28.58
2023-06-18T14:05:37.154Z,29.93
2023-06-18T14:10:39.398Z,30.63
2023-06-18T14:15:41.278Z,30.12
2023-06-18T14:20:43.000Z,30.53
2023-06-18T14:25:46.568Z,31.42
2023-06-18T14:30:55.854Z,32.21
2023-06-18T14:35:57.599Z,31.63
2023-06-18T14:40:59.303Z,30.89
2023-06-18T14:46:01.069Z,30.36
2023-06-18T14:51:03.544Z,30.89
2023-06-18T14:56:05.889Z,31.18
2023-06-18T15:01:09.600Z,31.93
2023-06-18T15:06:11.549Z,31.93
2023-06-18T15:11:13.366Z,32.10
2023-06-18T15:16:15.484Z,32.51
2023-06-18T15:21:17.357Z,32.98
2023-06-18T15:26:22.186Z,33.57
2023-06-18T15:31:24.019Z,33.86
2023-06-18T15:36:25.800Z,34.32
2023-06-18T15:41:27.657Z,33.94
2023-06-18T15:46:29.454Z,34.13
2023-06-18T15:51:33.425Z,34.42
2023-06-18T15:56:35.796Z,34.54
2023-06-18T16:01:37.826Z,34.44
2023-06-18T16:06:39.870Z,34.13
2023-06-18T16:11:41.762Z,33.33
2023-06-18T16:16:44.327Z,33.32
2023-06-18T16:21:46.290Z,32.96
2023-06-18T16:26:48.028Z,31.82
2023-06-18T16:32:00.068Z,31.10
2023-06-18T16:37:02.369Z,31.17
2023-06-18T16:42:04.601Z,31.86
2023-06-18T16:47:06.863Z,32.52
2023-06-18T16:52:08.617Z,32.86
2023-06-18T16:57:10.514Z,33.29
2023-06-18T17:02:12.321Z,33.73
2023-06-18T17:07:16.029Z,33.94
2023-06-18T17:12:18.166Z,34.18
2023-06-18T17:17:25.724Z,34.43
2023-06-18T17:22:27.600Z,34.62
2023-06-18T17:27:29.556Z,34.70
2023-06-18T17:32:31.698Z,33.79
2023-06-18T17:37:33.413Z,32.00
2023-06-18T17:42:35.170Z,30.34
2023-06-18T17:47:37.258Z,28.86
2023-06-18T17:52:39.016Z,27.68
2023-06-18T17:57:42.187Z,27.00
2023-06-18T18:02:44.239Z,26.31
2023-06-18T18:07:46.362Z,26.21
2023-06-18T18:12:48.319Z,26.22
2023-06-18T18:17:50.178Z,26.33
2023-06-18T18:22:52.046Z,26.31
2023-06-18T18:27:54.303Z,25.97
2023-06-18T18:32:56.098Z,25.40
2023-06-18T18:37:58.751Z,24.60
2023-06-18T18:43:00.679Z,23.89
2023-06-18T18:48:02.597Z,23.33
2023-06-18T18:53:04.393Z,22.74
2023-06-18T18:58:07.203Z,22.21
2023-06-18T19:03:09.623Z,21.70
2023-06-18T19:08:11.543Z,21.21
2023-06-18T19:13:23.593Z,20.76
2023-06-18T19:18:25.783Z,20.35
2023-06-18T19:23:27.537Z,19.98
2023-06-18T19:28:32.135Z,19.67
2023-06-18T19:33:33.860Z,19.38
2023-06-18T19:38:35.787Z,19.13
2023-06-18T19:43:38.473Z,18.90
2023-06-18T19:48:40.190Z,18.67
2023-06-18T19:53:41.988Z,18.48
2023-06-18T19:58:43.819Z,18.29
2023-06-18T20:03:46.377Z,18.14
2023-06-18T20:08:48.531Z,18.06
2023-06-18T20:13:53.570Z,18.00
2023-06-18T20:18:56.363Z,17.93
2023-06-18T20:23:58.284Z,17.85
2023-06-18T20:29:03.087Z,17.79
2023-06-18T20:34:05.271Z,17.71
2023-06-18T20:39:07.063Z,17.54
2023-06-18T20:44:09.008Z,17.32
2023-06-18T20:49:12.618Z,17.10
2023-06-18T20:54:14.646Z,16.92
2023-06-18T20:59:16.465Z,16.72
2023-06-18T21:04:18.580Z,16.47
2023-06-18T21:09:20.633Z,16.28
2023-06-18T21:14:26.709Z,16.13
2023-06-18T21:19:29.060Z,16.03
2023-06-18T21:24:30.897Z,15.90
2023-06-18T21:29:32.883Z,15.72
2023-06-18T21:34:34.603Z,15.53
2023-06-18T21:39:36.410Z,15.39
2023-06-18T21:44:38.502Z,15.28
2023-06-18T21:49:40.310Z,15.18
2023-06-18T21:54:42.663Z,15.08
2023-06-18T21:59:45.278Z,14.99
2023-06-18T22:04:48.589Z,14.88
2023-06-18T22:09:50.407Z,14.76
2023-06-18T22:14:52.656Z,14.68
2023-06-18T22:19:54.539Z,14.63
2023-06-18T22:24:56.300Z,14.65
2023-06-18T22:29:59.989Z,14.57
2023-06-18T22:35:01.827Z,14.41
2023-06-18T22:40:10.698Z,14.24
2023-06-18T22:45:12.577Z,14.08
2023-06-18T22:50:14.473Z,14.03
2023-06-18T22:55:16.250Z,13.93
2023-06-18T23:00:18.117Z,13.81
2023-06-18T23:05:20.099Z,13.72
2023-06-18T23:10:26.327Z,13.64
2023-06-18T23:15:34.326Z,13.60
2023-06-18T23:20:39.093Z,13.51
2023-06-18T23:25:40.885Z,13.44
2023-06-18T23:30:42.649Z,13.38
2023-06-18T23:35:44.942Z,13.29
2023-06-18T23:40:46.784Z,13.24
2023-06-18T23:45:48.640Z,13.21
2023-06-18T23:51:10.403Z,13.08
2023-06-18T23:56:12.190Z,13.00
